Time;durP1;ratioP1;P1;durP2;ratioP2;P2;SDS_P1;SDS_P2;PMS_P1;PMS_P2;Temp;Humidity;BMP_temperature;BMP_pressure;BME280_temperature;BME280_humidity;BME280_pressure;Samples;Min_cycle;Max_cycle;Signal;HPM_P1;HPM_P2
2022/10/06 00:03:14;;;;;;;8.93;5.28;;;9.20;99.90;;;;;;8265134;28;20030;-77
2022/10/06 00:07:15;;;;;;;7.75;5.03;;;9.40;99.90;;;;;;8264408;28;20487;-79
2022/10/06 00:11:16;;;;;;;10.00;5.30;;;9.40;99.90;;;;;;8265192;28;20018;-79
2022/10/06 00:15:23;;;;;;;9.25;5.03;;;9.50;99.90;;;;;;8264502;28;20410;-80
2022/10/06 00:19:24;;;;;;;6.80;4.47;;;9.40;99.90;;;;;;8264378;28;20019;-78
2022/10/06 00:23:26;;;;;;;7.30;4.85;;;9.30;99.90;;;;;;8265522;28;20034;-78
2022/10/06 00:27:38;;;;;;;6.85;4.90;;;9.10;99.90;;;;;;8263259;28;20014;-78
2022/10/06 00:31:39;;;;;;;8.85;6.10;;;9.00;99.90;;;;;;8258155;28;20034;-79
2022/10/06 00:36:27;;;;;;;10.20;4.97;;;8.80;99.90;;;;;;8246121;28;20581;-78
2022/10/06 00:40:28;;;;;;;9.30;5.20;;;8.80;99.90;;;;;;8253054;28;20034;-78
2022/10/06 00:44:28;;;;;;;8.45;5.25;;;8.70;99.90;;;;;;8263411;28;20030;-78
2022/10/06 00:48:30;;;;;;;7.25;5.43;;;8.70;99.90;;;;;;8262007;28;20031;-78
2022/10/06 00:52:30;;;;;;;6.82;5.18;;;8.80;99.90;;;;;;8262632;28;20415;-78
2022/10/06 00:56:31;;;;;;;7.38;4.47;;;8.90;99.90;;;;;;8261797;28;20030;-78
2022/10/06 01:00:32;;;;;;;5.35;4.55;;;9.10;99.90;;;;;;8263316;28;20022;-77
2022/10/06 01:04:37;;;;;;;7.80;3.88;;;9.20;99.90;;;;;;8260833;28;20049;-78
2022/10/06 01:08:38;;;;;;;7.22;3.67;;;9.30;99.90;;;;;;8262490;28;20054;-77
2022/10/06 01:12:39;;;;;;;4.70;3.20;;;10.00;99.90;;;;;;8261527;28;20030;-78
2022/10/06 01:16:42;;;;;;;4.97;3.40;;;10.60;99.90;;;;;;8261131;28;20042;-78
2022/10/06 01:21:08;;;;;;;4.68;3.28;;;10.80;99.90;;;;;;8261783;28;20026;-77
2022/10/06 01:25:11;;;;;;;3.75;2.80;;;11.00;99.90;;;;;;8258615;28;20045;-78
2022/10/06 01:29:12;;;;;;;3.97;3.20;;;11.30;99.90;;;;;;8261981;28;20572;-77
2022/10/06 01:33:12;;;;;;;3.30;2.72;;;11.60;99.90;;;;;;8260776;28;20027;-78
2022/10/06 01:37:13;;;;;;;3.97;2.42;;;11.60;99.90;;;;;;8259814;28;20457;-77
2022/10/06 01:41:13;;;;;;;3.92;2.60;;;11.60;99.90;;;;;;8261941;28;20019;-78
2022/10/06 01:45:14;;;;;;;3.92;2.53;;;11.80;99.90;;;;;;8260264;28;20026;-80
2022/10/06 01:49:15;;;;;;;6.35;2.50;;;12.00;99.90;;;;;;8260894;28;20019;-78
2022/10/06 01:53:16;;;;;;;5.05;3.10;;;11.80;99.90;;;;;;8260424;28;20029;-77
2022/10/06 01:57:17;;;;;;;4.28;2.45;;;11.70;99.90;;;;;;8260757;28;20026;-79
2022/10/06 02:01:17;;;;;;;3.80;2.30;;;11.50;99.90;;;;;;8259804;28;20080;-78
2022/10/06 02:05:18;;;;;;;3.83;2.75;;;11.50;99.90;;;;;;8259405;28;20041;-78
2022/10/06 02:09:18;;;;;;;4.22;2.72;;;11.20;99.90;;;;;;8259632;28;20085;-79
2022/10/06 02:13:22;;;;;;;3.50;2.75;;;10.90;99.90;;;;;;8259351;28;20030;-79
2022/10/06 02:17:23;;;;;;;4.18;2.80;;;10.60;99.90;;;;;;8258696;28;20117;-78
2022/10/06 02:21:23;;;;;;;6.80;2.65;;;10.60;99.90;;;;;;8259091;28;20026;-79
2022/10/06 02:25:24;;;;;;;5.00;2.35;;;10.50;99.90;;;;;;8259091;28;20030;-78
2022/10/06 02:29:25;;;;;;;6.40;2.45;;;10.30;99.90;;;;;;8259687;28;20023;-78
2022/10/06 02:33:25;;;;;;;6.22;2.80;;;10.30;99.90;;;;;;8258641;28;20109;-78
2022/10/06 02:37:26;;;;;;;5.72;2.90;;;10.30;99.90;;;;;;8259616;28;20030;-78
2022/10/06 02:41:27;;;;;;;4.45;2.60;;;10.10;99.90;;;;;;8258960;28;20030;-77
2022/10/06 02:45:29;;;;;;;5.60;3.13;;;9.90;99.90;;;;;;8258047;28;20026;-78
2022/10/06 02:49:30;;;;;;;6.20;2.70;;;9.80;99.90;;;;;;8260026;28;20053;-77
2022/10/06 02:53:31;;;;;;;3.42;3.00;;;9.60;99.90;;;;;;8259187;28;20022;-78
2022/10/06 02:57:31;;;;;;;5.03;2.60;;;9.60;99.90;;;;;;8262734;28;20490;-77
2022/10/06 03:01:32;;;;;;;5.25;3.05;;;9.60;99.90;;;;;;8258048;28;20110;-78
2022/10/06 03:05:32;;;;;;;4.65;3.42;;;9.50;99.90;;;;;;8264612;28;20034;-78
2022/10/06 03:09:33;;;;;;;4.50;3.08;;;9.50;99.90;;;;;;8265252;28;20466;-78
2022/10/06 03:13:34;;;;;;;3.88;2.60;;;9.60;99.90;;;;;;8266272;28;20430;-78
2022/10/06 03:17:34;;;;;;;4.35;2.78;;;9.60;99.90;;;;;;8264669;28;20518;-78
2022/10/06 03:21:41;;;;;;;5.72;2.90;;;9.50;99.90;;;;;;8265180;28;20054;-78
2022/10/06 03:25:41;;;;;;;5.72;3.30;;;9.40;99.90;;;;;;8264396;28;20113;-77
2022/10/06 03:29:42;;;;;;;4.78;3.08;;;9.50;99.90;;;;;;8266317;28;20423;-77
2022/10/06 03:33:42;;;;;;;5.75;3.17;;;9.70;99.90;;;;;;8264382;28;20113;-77
2022/10/06 03:37:43;;;;;;;3.30;2.63;;;9.60;99.90;;;;;;8256340;28;20049;-77
2022/10/06 03:41:43;;;;;;;5.53;2.80;;;9.50;99.90;;;;;;8254702;28;20482;-77
2022/10/06 03:45:55;;;;;;;2.67;2.42;;;9.50;99.90;;;;;;8257103;28;20026;-77
2022/10/06 03:49:56;;;;;;;5.75;2.70;;;9.20;99.90;;;;;;8257591;28;20019;-77
2022/10/06 03:53:57;;;;;;;6.22;2.83;;;9.00;99.90;;;;;;8263894;28;20450;-77
2022/10/06 03:57:58;;;;;;;3.58;2.70;;;9.10;99.90;;;;;;8263866;28;20030;-77
2022/10/06 04:01:58;;;;;;;5.45;3.20;;;8.90;99.90;;;;;;8261980;28;20037;-78
2022/10/06 04:06:01;;;;;;;6.18;3.40;;;8.70;99.90;;;;;;8261791;28;20157;-77
2022/10/06 04:10:02;;;;;;;6.97;4.28;;;8.90;99.90;;;;;;8260909;28;20027;-77
2022/10/06 04:14:05;;;;;;;6.15;3.70;;;8.80;99.90;;;;;;8258045;28;20042;-77
2022/10/06 04:18:05;;;;;;;4.93;3.90;;;8.90;99.90;;;;;;8259469;28;20046;-78
2022/10/06 04:22:06;;;;;;;7.22;4.40;;;9.00;99.90;;;;;;8262294;28;20037;-77
2022/10/06 04:26:14;;;;;;;5.95;2.85;;;9.10;99.90;;;;;;8259615;28;20658;-77
2022/10/06 04:30:15;;;;;;;3.30;2.30;;;9.20;99.90;;;;;;8259400;28;20019;-77
2022/10/06 04:34:16;;;;;;;3.05;2.40;;;9.20;99.90;;;;;;8252711;28;20023;-77
2022/10/06 04:38:16;;;;;;;8.13;2.70;;;8.80;99.90;;;;;;8254741;28;20022;-77
2022/10/06 04:42:17;;;;;;;3.38;2.42;;;8.50;99.90;;;;;;8256685;28;20026;-77
2022/10/06 04:46:19;;;;;;;4.93;2.58;;;8.20;99.90;;;;;;8258146;28;20540;-77
2022/10/06 04:50:20;;;;;;;4.30;2.47;;;8.00;99.90;;;;;;8261279;28;20545;-77
2022/10/06 04:54:20;;;;;;;6.03;3.25;;;7.90;99.90;;;;;;8255263;28;20041;-77
2022/10/06 04:58:21;;;;;;;4.57;3.35;;;7.90;99.90;;;;;;8259607;28;20037;-76
2022/10/06 05:02:21;;;;;;;5.25;3.15;;;7.90;99.90;;;;;;8259369;28;20505;-78
2022/10/06 05:06:37;;;;;;;5.65;3.67;;;7.70;99.90;;;;;;8260786;28;20018;-77
2022/10/06 05:10:38;;;;;;;7.13;3.97;;;7.70;99.90;;;;;;8259885;28;20085;-77
2022/10/06 05:14:38;;;;;;;4.88;3.70;;;7.90;99.90;;;;;;8260311;28;20529;-77
2022/10/06 05:18:39;;;;;;;7.10;4.72;;;8.20;99.90;;;;;;8260596;28;20660;-77
2022/10/06 05:22:40;;;;;;;12.82;5.30;;;8.30;99.90;;;;;;8261703;28;20031;-77
2022/10/06 05:26:40;;;;;;;5.90;3.92;;;8.20;99.90;;;;;;8260748;28;20027;-78
2022/10/06 05:30:41;;;;;;;5.75;3.70;;;8.20;99.90;;;;;;8259955;28;20664;-77
2022/10/06 05:34:41;;;;;;;4.88;3.50;;;8.10;99.90;;;;;;8260305;28;20033;-77
2022/10/06 05:38:43;;;;;;;4.55;3.38;;;7.90;99.90;;;;;;8260396;28;20077;-78
2022/10/06 05:42:44;;;;;;;9.30;4.43;;;7.70;99.90;;;;;;8261503;28;20023;-77
2022/10/06 05:46:44;;;;;;;8.00;4.78;;;7.80;99.90;;;;;;8254135;28;20027;-77
2022/10/06 05:50:45;;;;;;;5.82;3.28;;;7.90;99.90;;;;;;8259828;28;20031;-77
2022/10/06 05:54:45;;;;;;;5.13;3.20;;;7.90;99.90;;;;;;8259556;28;20030;-77
2022/10/06 05:58:48;;;;;;;6.28;3.55;;;7.90;99.90;;;;;;8260621;28;20434;-77
2022/10/06 06:02:48;;;;;;;8.05;4.15;;;8.10;99.90;;;;;;8251099;28;20031;-77
2022/10/06 06:06:49;;;;;;;7.15;3.88;;;8.10;99.90;;;;;;8259120;28;20034;-77
2022/10/06 06:10:49;;;;;;;6.57;3.97;;;8.20;99.90;;;;;;8259336;28;20399;-77
2022/10/06 06:19:11;;;;;;;8.50;5.05;;;8.50;99.90;;;;;;8261095;28;20085;-77
2022/10/06 06:23:12;;;;;;;6.93;5.07;;;8.80;99.90;;;;;;8259220;28;20030;-77
2022/10/06 06:27:12;;;;;;;8.65;3.50;;;9.10;99.90;;;;;;8260244;28;20052;-77
2022/10/06 06:31:19;;;;;;;4.30;3.53;;;9.50;99.90;;;;;;8260592;28;20022;-77
2022/10/06 06:35:20;;;;;;;5.07;3.25;;;9.40;99.90;;;;;;8259213;28;20022;-77
2022/10/06 06:39:21;;;;;;;4.20;2.90;;;9.50;99.90;;;;;;8259249;28;20101;-77
2022/10/06 06:43:21;;;;;;;5.32;3.10;;;9.50;99.90;;;;;;8259189;28;20510;-78
2022/10/06 06:47:22;;;;;;;7.47;3.58;;;9.50;99.90;;;;;;8258548;28;20561;-77
2022/10/06 06:51:23;;;;;;;12.38;5.35;;;9.70;99.90;;;;;;8257948;28;20077;-78
2022/10/06 06:55:23;;;;;;;11.50;5.22;;;9.80;99.90;;;;;;8258657;28;20089;-79
2022/10/06 06:59:24;;;;;;;11.70;6.32;;;10.20;99.90;;;;;;8260169;28;20498;-77
2022/10/06 07:03:24;;;;;;;8.77;6.07;;;10.40;99.90;;;;;;8257451;28;20113;-78
2022/10/06 07:07:25;;;;;;;9.93;6.22;;;10.90;99.90;;;;;;8252430;28;20109;-78
2022/10/06 07:11:31;;;;;;;9.40;5.97;;;11.60;99.90;;;;;;8258972;28;20030;-79
2022/10/06 07:28:29;;;;;;;8.93;5.20;;;12.90;99.90;;;;;;8260523;28;20540;-78
2022/10/06 07:32:30;;;;;;;10.68;5.15;;;13.10;99.90;;;;;;8258444;28;20027;-78
2022/10/06 07:36:31;;;;;;;4.20;3.10;;;13.70;99.90;;;;;;8259330;28;20061;-79
2022/10/06 07:40:32;;;;;;;4.25;3.42;;;14.20;99.90;;;;;;8258593;28;20027;-77
2022/10/06 07:44:32;;;;;;;9.38;3.63;;;14.30;99.90;;;;;;8261732;28;20027;-78
2022/10/06 07:48:33;;;;;;;5.40;3.72;;;14.40;99.90;;;;;;8264046;28;20032;-77
2022/10/06 07:52:38;;;;;;;6.93;4.60;;;14.50;99.90;;;;;;8264789;28;20034;-78
2022/10/06 07:56:38;;;;;;;9.50;4.28;;;14.40;99.90;;;;;;8263827;28;20033;-78
2022/10/06 08:00:42;;;;;;;7.90;4.75;;;14.60;99.90;;;;;;8263933;28;20511;-79
2022/10/06 08:04:43;;;;;;;8.52;4.10;;;14.40;99.90;;;;;;8262799;28;20038;-79
2022/10/06 08:08:46;;;;;;;9.45;4.20;;;14.90;99.90;;;;;;8263225;28;20122;-78
2022/10/06 08:12:47;;;;;;;6.78;4.05;;;15.80;99.90;;;;;;8256544;28;20026;-78
2022/10/06 08:16:47;;;;;;;9.65;4.05;;;16.40;99.90;;;;;;8262694;28;20124;-79
2022/10/06 08:20:48;;;;;;;6.82;4.43;;;16.90;99.90;;;;;;8264763;28;20037;-78
2022/10/06 08:24:48;;;;;;;5.80;3.95;;;17.10;99.90;;;;;;8262558;28;20030;-79
2022/10/06 08:28:51;;;;;;;6.50;4.10;;;17.20;99.90;;;;;;8264310;28;20522;-78
2022/10/06 08:32:52;;;;;;;4.70;3.65;;;17.20;99.90;;;;;;8263779;28;20030;-79
2022/10/06 08:36:53;;;;;;;5.88;3.47;;;17.60;99.90;;;;;;8262322;28;20501;-78
2022/10/06 08:40:53;;;;;;;6.25;3.20;;;17.50;99.90;;;;;;8264114;28;20045;-80
2022/10/06 08:45:01;;;;;;;6.97;3.60;;;17.70;99.90;;;;;;8264196;28;20022;-80
2022/10/06 08:49:02;;;;;;;6.82;3.50;;;18.10;99.90;;;;;;8265038;28;20026;-79
2022/10/06 08:53:11;;;;;;;4.93;3.47;;;18.60;99.90;;;;;;8263095;28;20022;-79
2022/10/06 08:57:14;;;;;;;5.47;3.53;;;19.30;99.90;;;;;;8262234;28;20046;-80
2022/10/06 09:01:18;;;;;;;6.35;3.10;;;19.80;99.90;;;;;;8263750;28;20030;-80
2022/10/06 09:05:27;;;;;;;6.07;2.95;;;20.10;99.90;;;;;;8262545;28;20026;-80
2022/10/06 09:09:59;;;;;;;5.68;2.90;;;20.10;99.90;;;;;;8263873;28;20392;-80
2022/10/06 09:14:18;;;;;;;4.95;2.83;;;20.00;99.90;;;;;;8263248;28;20026;-80
2022/10/06 09:18:29;;;;;;;7.90;2.97;;;20.30;99.90;;;;;;8261072;28;20031;-79
2022/10/06 09:22:31;;;;;;;5.60;3.00;;;20.00;99.90;;;;;;8262158;28;20501;-79
2022/10/06 09:26:33;;;;;;;5.10;3.13;;;20.10;99.90;;;;;;8261134;28;20023;-79
2022/10/06 09:30:33;;;;;;;4.38;2.70;;;19.70;99.90;;;;;;8261568;28;20394;-78
2022/10/06 09:34:40;;;;;;;6.05;2.95;;;19.80;99.90;;;;;;8261487;28;20098;-78
2022/10/06 09:38:53;;;;;;;3.60;2.78;;;19.50;99.90;;;;;;8261453;28;20565;-80
2022/10/06 09:42:54;;;;;;;5.78;2.83;;;19.60;99.90;;;;;;8261081;28;20037;-80
2022/10/06 09:46:55;;;;;;;5.35;3.00;;;19.70;99.90;;;;;;8260614;28;20022;-78
2022/10/06 09:51:10;;;;;;;6.07;2.70;;;19.90;99.90;;;;;;8262115;28;20026;-80
2022/10/06 09:55:13;;;;;;;5.47;3.03;;;20.00;99.90;;;;;;8260217;28;20022;-79
2022/10/06 09:59:30;;;;;;;4.53;2.70;;;20.80;99.90;;;;;;8260595;28;20026;-78
2022/10/06 10:03:50;;;;;;;7.18;2.90;;;21.30;99.90;;;;;;8259167;28;20105;-80
2022/10/06 10:08:20;;;;;;;6.63;2.95;;;22.20;99.90;;;;;;8259354;28;20030;-80
2022/10/06 10:12:26;;;;;;;5.70;2.95;;;22.50;99.90;;;;;;8258943;28;20399;-79
2022/10/06 10:16:33;;;;;;;4.00;2.53;;;22.90;99.90;;;;;;8260940;28;20062;-80
2022/10/06 10:20:51;;;;;;;5.65;2.50;;;21.10;99.90;;;;;;8260713;28;20030;-79
2022/10/06 10:25:18;;;;;;;6.55;4.68;;;19.60;99.90;;;;;;8259104;28;20332;-78
2022/10/06 10:29:37;;;;;;;7.15;2.97;;;18.90;99.90;;;;;;8260010;28;20030;-80
2022/10/06 10:34:23;;;;;;;6.25;3.47;;;19.90;99.90;;;;;;8258991;28;20030;-80
2022/10/06 10:38:25;;;;;;;6.93;3.17;;;21.10;99.90;;;;;;8235296;28;20057;-80
2022/10/06 10:42:55;;;;;;;6.63;3.10;;;21.30;99.90;;;;;;8256708;28;20019;-78
2022/10/06 10:47:16;;;;;;;4.88;3.15;;;21.70;99.90;;;;;;8255887;28;20022;-78
2022/10/06 10:51:50;;;;;;;4.65;3.20;;;22.20;99.90;;;;;;8252524;28;20019;-81
2022/10/06 10:55:52;;;;;;;6.93;3.75;;;23.20;99.90;;;;;;8242591;28;20037;-79
2022/10/06 10:59:59;;;;;;;7.95;3.75;;;23.30;99.90;;;;;;8256293;28;20033;-79
2022/10/06 11:04:01;;;;;;;7.72;3.03;;;22.50;99.90;;;;;;8255692;28;20449;-80
2022/10/06 11:08:15;;;;;;;8.60;3.50;;;22.20;99.90;;;;;;8260120;28;20026;-78
2022/10/06 11:12:38;;;;;;;7.45;3.45;;;21.70;99.90;;;;;;8252956;28;20033;-79
2022/10/06 11:16:52;;;;;;;7.70;3.25;;;20.80;99.90;;;;;;8255335;28;20110;-78
2022/10/06 11:21:10;;;;;;;8.18;3.40;;;20.20;99.90;;;;;;8257506;28;20030;-78
2022/10/06 11:25:32;;;;;;;4.60;3.28;;;20.20;99.90;;;;;;8261632;28;20503;-77
2022/10/06 11:29:54;;;;;;;6.90;3.45;;;20.80;99.90;;;;;;8257863;28;20023;-78
2022/10/06 11:33:59;;;;;;;3.95;3.10;;;21.40;99.90;;;;;;8261361;28;20027;-78
2022/10/06 11:38:14;;;;;;;5.05;3.03;;;21.90;99.90;;;;;;8262078;28;20119;-78
2022/10/06 11:42:36;;;;;;;5.70;3.25;;;20.90;99.90;;;;;;8254672;28;20018;-78
2022/10/06 11:46:53;;;;;;;4.47;3.15;;;20.80;99.90;;;;;;8255912;28;20400;-80
2022/10/06 11:50:56;;;;;;;6.50;3.42;;;21.50;99.90;;;;;;8250299;28;20023;-79
2022/10/06 11:55:17;;;;;;;5.15;3.20;;;22.60;99.90;;;;;;8259417;28;20076;-78
2022/10/06 11:59:30;;;;;;;4.43;3.53;;;23.10;99.90;;;;;;8262442;28;20473;-79
2022/10/06 12:03:30;;;;;;;4.28;3.00;;;24.20;99.90;;;;;;8260858;28;20407;-79
2022/10/06 12:07:51;;;;;;;7.65;3.00;;;25.20;99.90;;;;;;8259650;28;20050;-79
2022/10/06 12:11:53;;;;;;;7.70;3.00;;;24.60;99.90;;;;;;8254859;28;20030;-78
2022/10/06 12:16:17;;;;;;;5.43;2.95;;;24.00;99.90;;;;;;8257389;28;20045;-78
2022/10/06 12:20:54;;;;;;;6.00;2.85;;;22.90;99.90;;;;;;8258788;28;20022;-79
2022/10/06 12:25:23;;;;;;;5.60;2.90;;;21.60;99.90;;;;;;8253548;28;20030;-79
2022/10/06 12:29:50;;;;;;;8.00;3.30;;;20.30;99.90;;;;;;8253321;28;20023;-78
2022/10/06 12:33:51;;;;;;;7.43;2.85;;;19.80;99.90;;;;;;8252910;28;20030;-78
2022/10/06 12:37:54;;;;;;;5.63;3.40;;;19.50;99.90;;;;;;8260889;28;20610;-78
2022/10/06 12:42:17;;;;;;;9.38;3.38;;;19.20;99.90;;;;;;8253723;28;20019;-78
2022/10/06 12:46:23;;;;;;;5.40;3.00;;;19.00;99.90;;;;;;8241557;28;20027;-78
2022/10/06 12:50:25;;;;;;;5.30;3.28;;;18.70;99.90;;;;;;8256841;28;20022;-78
2022/10/06 12:54:41;;;;;;;5.47;3.30;;;18.70;99.90;;;;;;8258959;28;20030;-78
2022/10/06 12:58:41;;;;;;;9.52;3.70;;;18.90;99.90;;;;;;8257985;28;20026;-78
2022/10/06 13:02:43;;;;;;;5.55;3.70;;;19.00;99.90;;;;;;8257991;28;20437;-78
2022/10/06 13:06:48;;;;;;;10.18;3.83;;;19.80;99.90;;;;;;8245216;28;20033;-79
2022/10/06 13:10:49;;;;;;;6.15;3.85;;;21.30;99.90;;;;;;8252839;28;20458;-78
2022/10/06 13:15:11;;;;;;;7.60;3.47;;;20.60;99.90;;;;;;8259590;28;20046;-79
2022/10/06 13:19:25;;;;;;;9.02;3.90;;;22.60;99.90;;;;;;8261487;28;20018;-78
2022/10/06 13:23:30;;;;;;;5.20;3.17;;;22.30;99.90;;;;;;8261812;28;20027;-79
2022/10/06 13:27:31;;;;;;;7.63;3.33;;;23.50;99.90;;;;;;8254538;28;20053;-78
2022/10/06 13:31:35;;;;;;;6.97;3.40;;;24.30;99.90;;;;;;8261640;28;20030;-78
2022/10/06 13:35:36;;;;;;;6.70;3.13;;;23.20;99.90;;;;;;8259898;28;20038;-78
2022/10/06 13:39:37;;;;;;;5.85;3.10;;;23.30;99.90;;;;;;8261760;28;20045;-79
2022/10/06 13:43:43;;;;;;;6.22;2.97;;;23.70;99.90;;;;;;8260447;28;20402;-79
2022/10/06 13:47:44;;;;;;;4.03;3.10;;;24.60;99.90;;;;;;8259902;28;20022;-78
2022/10/06 13:51:48;;;;;;;6.55;3.60;;;24.00;99.90;;;;;;8259969;28;20022;-78
2022/10/06 13:55:49;;;;;;;10.23;3.65;;;23.30;99.90;;;;;;8260402;28;20072;-79
2022/10/06 14:00:03;;;;;;;8.13;3.03;;;22.90;99.90;;;;;;8259180;28;20023;-81
2022/10/06 14:04:17;;;;;;;4.72;3.42;;;21.60;99.90;;;;;;8251804;28;20057;-80
2022/10/06 14:08:23;;;;;;;6.82;2.85;;;22.40;99.90;;;;;;8249454;28;20030;-81
2022/10/06 14:12:23;;;;;;;5.50;3.55;;;23.50;99.90;;;;;;8256801;28;20041;-79
2022/10/06 14:16:26;;;;;;;8.55;3.17;;;23.00;99.90;;;;;;8257455;28;21277;-79
2022/10/06 14:20:41;;;;;;;9.68;3.17;;;21.50;99.90;;;;;;8248675;28;20030;-80
2022/10/06 14:24:49;;;;;;;5.47;3.13;;;21.90;99.90;;;;;;8259529;28;20027;-80
2022/10/06 14:28:51;;;;;;;6.85;2.92;;;21.70;99.90;;;;;;8254647;28;20561;-81
2022/10/06 14:32:52;;;;;;;5.35;2.97;;;21.00;99.90;;;;;;8258819;28;20030;-78
2022/10/06 14:36:54;;;;;;;4.68;3.00;;;20.50;99.90;;;;;;8258630;28;20494;-81
2022/10/06 14:40:54;;;;;;;5.97;3.20;;;20.00;99.90;;;;;;8256818;28;20513;-80
2022/10/06 14:44:55;;;;;;;7.30;3.00;;;19.80;99.90;;;;;;8252699;28;20034;-80
2022/10/06 14:48:56;;;;;;;6.82;3.42;;;19.40;99.90;;;;;;8260182;28;20030;-81
2022/10/06 14:52:59;;;;;;;4.97;3.50;;;19.40;99.90;;;;;;8256661;28;20434;-80
2022/10/06 14:57:00;;;;;;;5.20;3.20;;;19.40;99.90;;;;;;8259294;28;20117;-78
2022/10/06 15:01:06;;;;;;;7.85;3.13;;;19.10;99.90;;;;;;8249516;28;20030;-79
2022/10/06 15:05:07;;;;;;;7.90;3.33;;;19.10;99.90;;;;;;8258454;28;20049;-81
2022/10/06 15:09:08;;;;;;;4.88;2.67;;;19.10;99.90;;;;;;8259340;28;20022;-80
2022/10/06 15:13:09;;;;;;;12.18;2.90;;;19.10;99.90;;;;;;8255765;28;20129;-79
2022/10/06 15:17:09;;;;;;;5.85;2.78;;;18.90;99.90;;;;;;8246147;28;20550;-79
2022/10/06 15:21:10;;;;;;;6.30;3.00;;;18.40;99.90;;;;;;8255635;28;20053;-80
2022/10/06 15:28:59;;;;;;;9.43;3.17;;;18.10;99.90;;;;;;8251308;28;20022;-79
2022/10/06 15:29:33;;;;;;;3.92;2.50;;;17.70;99.90;;;;;;8260256;28;20018;-79
2022/10/06 15:33:35;;;;;;;6.63;2.70;;;17.60;99.90;;;;;;8258540;28;20411;-79
2022/10/06 15:37:38;;;;;;;6.03;2.90;;;17.40;99.90;;;;;;8245921;28;20026;-79
2022/10/06 15:41:40;;;;;;;7.13;4.13;;;17.30;99.90;;;;;;8256836;28;20030;-80
2022/10/06 15:45:52;;;;;;;7.57;2.72;;;17.20;99.90;;;;;;8257876;28;20703;-79
2022/10/06 15:49:53;;;;;;;11.65;2.70;;;17.00;99.90;;;;;;8245814;28;20026;-80
2022/10/06 15:53:55;;;;;;;6.43;2.60;;;16.80;99.90;;;;;;8252933;28;20066;-79
2022/10/06 15:57:55;;;;;;;5.22;2.47;;;16.70;99.90;;;;;;8249090;28;20054;-78
2022/10/06 16:02:00;;;;;;;4.63;2.80;;;16.50;99.90;;;;;;8252279;28;20026;-79
2022/10/06 16:06:05;;;;;;;6.10;2.60;;;16.40;99.90;;;;;;8256476;28;20069;-79
2022/10/06 16:10:06;;;;;;;7.90;2.95;;;16.00;99.90;;;;;;8259827;28;20755;-80
2022/10/06 16:14:08;;;;;;;5.03;2.75;;;15.80;99.90;;;;;;8259221;28;20089;-80
2022/10/06 16:18:09;;;;;;;7.03;2.78;;;15.60;99.90;;;;;;8254978;28;20054;-84
2022/10/06 16:22:12;;;;;;;6.63;3.53;;;15.20;99.90;;;;;;8265993;28;20386;-85
2022/10/06 16:26:13;;;;;;;7.45;3.20;;;15.10;99.90;;;;;;8265633;28;20022;-84
2022/10/06 16:30:14;;;;;;;6.72;2.75;;;15.20;99.90;;;;;;8265580;28;20080;-84
2022/10/06 16:34:14;;;;;;;6.05;2.75;;;15.00;99.90;;;;;;8266580;28;20501;-84
2022/10/06 16:38:15;;;;;;;9.90;3.30;;;14.80;99.90;;;;;;8265596;28;20029;-85
2022/10/06 16:42:16;;;;;;;11.13;3.25;;;14.40;99.90;;;;;;8266402;28;20487;-84
2022/10/06 16:46:23;;;;;;;7.60;3.72;;;14.10;99.90;;;;;;8260765;28;20022;-84
2022/10/06 16:50:23;;;;;;;7.15;3.67;;;13.70;99.90;;;;;;8259752;28;20084;-85
2022/10/06 16:54:24;;;;;;;5.10;3.30;;;13.50;99.90;;;;;;8259830;28;20495;-84
2022/10/06 16:58:25;;;;;;;10.52;3.60;;;13.30;99.90;;;;;;8252733;28;20081;-84
2022/10/06 17:02:25;;;;;;;13.65;4.00;;;13.10;99.90;;;;;;8259599;28;20487;-85
2022/10/06 17:06:26;;;;;;;7.57;3.88;;;13.00;99.90;;;;;;8255391;28;20069;-85
2022/10/06 17:10:26;;;;;;;7.40;3.88;;;12.90;99.90;;;;;;8263170;28;20089;-85
2022/10/06 17:14:32;;;;;;;9.85;3.80;;;12.60;99.90;;;;;;8262892;28;20065;-85
2022/10/06 17:18:33;;;;;;;4.75;3.85;;;12.50;99.90;;;;;;8257470;28;20089;-85
2022/10/06 17:22:33;;;;;;;7.80;4.25;;;12.30;99.90;;;;;;8255983;28;20495;-77
2022/10/06 17:26:39;;;;;;;13.80;4.18;;;12.40;99.90;;;;;;8252372;28;20109;-79
2022/10/06 17:30:50;;;;;;;8.38;3.95;;;12.30;99.90;;;;;;8252060;28;20026;-77
2022/10/06 17:34:52;;;;;;;8.02;3.92;;;12.30;99.90;;;;;;8249132;28;20034;-78
2022/10/06 17:39:02;;;;;;;9.15;4.30;;;12.20;99.90;;;;;;8255909;28;20041;-79
2022/10/06 17:43:03;;;;;;;8.87;4.33;;;12.10;99.90;;;;;;8246436;28;20034;-77
2022/10/06 17:47:04;;;;;;;5.53;3.75;;;12.10;99.90;;;;;;8251448;28;20026;-78
2022/10/06 17:51:04;;;;;;;11.70;4.90;;;12.10;99.90;;;;;;8245155;28;20022;-78
2022/10/06 17:55:05;;;;;;;7.35;4.55;;;11.90;99.90;;;;;;8256668;28;20038;-78
2022/10/06 17:59:10;;;;;;;13.38;5.05;;;11.80;99.90;;;;;;8257004;28;20036;-78
2022/10/06 18:03:11;;;;;;;10.13;5.13;;;11.80;99.90;;;;;;8246226;28;20065;-77
2022/10/06 18:07:11;;;;;;;10.23;4.97;;;11.90;99.90;;;;;;8255926;28;20022;-79
2022/10/06 18:15:35;;;;;;;11.80;5.20;;;11.80;99.90;;;;;;8247185;28;20050;-78
2022/10/06 18:19:37;;;;;;;10.88;4.97;;;11.60;99.90;;;;;;8256297;28;20034;-79
2022/10/06 18:23:38;;;;;;;11.90;5.88;;;11.50;99.90;;;;;;8255399;28;20034;-79
2022/10/06 18:27:38;;;;;;;9.05;5.43;;;11.50;99.90;;;;;;8256682;28;20026;-81
2022/10/06 18:31:39;;;;;;;8.70;5.55;;;11.50;99.90;;;;;;8258986;28;20033;-79
2022/10/06 18:35:39;;;;;;;10.45;5.20;;;11.50;99.90;;;;;;8252764;28;20121;-79
2022/10/06 18:39:40;;;;;;;6.18;5.25;;;11.60;99.90;;;;;;8254626;28;20042;-77
2022/10/06 18:43:41;;;;;;;13.57;6.03;;;11.40;99.90;;;;;;8250950;28;20448;-77
2022/10/06 18:52:00;;;;;;;14.68;5.03;;;11.20;99.90;;;;;;8248810;28;20093;-78
2022/10/06 18:56:01;;;;;;;8.95;5.30;;;11.10;99.90;;;;;;8256257;28;20030;-78
2022/10/06 19:00:02;;;;;;;7.85;6.03;;;11.10;99.90;;;;;;8247902;28;20026;-78
2022/10/06 19:04:04;;;;;;;8.63;5.97;;;11.10;99.90;;;;;;8256892;28;20430;-78
2022/10/06 19:08:04;;;;;;;7.88;5.50;;;11.00;99.90;;;;;;8258139;28;20014;-79
2022/10/06 19:12:05;;;;;;;11.25;5.75;;;10.90;99.90;;;;;;8249884;28;20064;-79
2022/10/06 19:16:05;;;;;;;8.65;6.03;;;10.70;99.90;;;;;;8257201;28;20038;-78
2022/10/06 19:20:09;;;;;;;12.65;5.90;;;10.70;99.90;;;;;;8257937;28;20022;-78
2022/10/06 19:24:12;;;;;;;11.75;5.60;;;10.70;99.90;;;;;;8256296;28;20022;-79
2022/10/06 19:28:13;;;;;;;10.85;5.38;;;10.60;99.90;;;;;;8253912;28;20113;-79
2022/10/06 19:32:15;;;;;;;8.38;6.28;;;10.50;99.90;;;;;;8251007;28;20023;-79
2022/10/06 19:36:16;;;;;;;16.13;8.68;;;10.30;99.90;;;;;;8252297;28;20081;-78
2022/10/06 19:40:16;;;;;;;12.77;8.50;;;10.50;99.90;;;;;;8246959;28;20483;-79
2022/10/06 19:44:17;;;;;;;12.85;8.77;;;10.60;99.90;;;;;;8260870;28;20027;-78
2022/10/06 19:48:18;;;;;;;12.18;8.13;;;10.90;99.90;;;;;;8250705;28;20074;-78
2022/10/06 19:52:19;;;;;;;12.85;7.65;;;11.00;99.90;;;;;;8252272;28;20102;-78
2022/10/06 19:56:24;;;;;;;13.13;9.00;;;11.20;99.90;;;;;;8264581;28;20406;-79
2022/10/06 20:00:26;;;;;;;13.65;8.48;;;11.10;99.90;;;;;;8265383;28;20029;-79
2022/10/06 20:04:26;;;;;;;22.38;15.55;;;11.30;99.90;;;;;;8263842;28;20093;-79
2022/10/06 20:08:29;;;;;;;35.58;24.67;;;11.80;99.90;;;;;;8265187;28;20044;-79
2022/10/06 20:12:32;;;;;;;33.30;21.10;;;11.70;99.90;;;;;;8258760;28;20041;-78
2022/10/06 20:16:33;;;;;;;26.02;19.80;;;11.50;99.90;;;;;;8261075;28;20034;-79
2022/10/06 20:20:34;;;;;;;23.48;16.60;;;11.50;99.90;;;;;;8265855;28;20406;-79
2022/10/06 20:24:34;;;;;;;15.65;11.70;;;11.60;99.90;;;;;;8264479;28;20069;-79
2022/10/06 20:28:35;;;;;;;12.30;9.30;;;11.70;99.90;;;;;;8264796;28;20483;-79
2022/10/06 20:32:36;;;;;;;15.80;9.30;;;11.70;99.90;;;;;;8265719;28;20402;-79
2022/10/06 20:36:37;;;;;;;14.38;10.00;;;11.80;99.90;;;;;;8264266;28;20475;-78
2022/10/06 20:40:47;;;;;;;16.15;10.55;;;11.80;99.90;;;;;;8265423;28;20030;-79
2022/10/06 20:44:48;;;;;;;;;;;11.80;99.90;;;;;;8257641;28;20045;-79
2022/10/06 20:48:50;;;;;;;15.07;9.27;;;11.80;99.90;;;;;;8265332;28;19929;-79
2022/10/06 20:52:52;;;;;;;11.45;8.57;;;11.80;99.90;;;;;;8264232;28;20081;-80
2022/10/06 20:56:53;;;;;;;10.73;7.97;;;11.70;99.90;;;;;;8263345;28;20487;-79
2022/10/06 21:00:54;;;;;;;9.18;7.10;;;11.70;99.90;;;;;;8265127;28;20429;-79
2022/10/06 21:04:56;;;;;;;11.70;7.93;;;11.60;99.90;;;;;;8262983;28;20081;-78
2022/10/06 21:08:57;;;;;;;12.80;8.80;;;11.50;99.90;;;;;;8263716;28;20018;-78
2022/10/06 21:12:58;;;;;;;9.85;7.13;;;11.50;99.90;;;;;;8260623;28;20034;-79
2022/10/06 21:16:58;;;;;;;10.70;6.15;;;11.50;99.90;;;;;;8256689;28;20053;-79
2022/10/06 21:21:06;;;;;;;16.13;8.93;;;11.30;99.90;;;;;;8263825;28;20030;-79
2022/10/06 21:25:07;;;;;;;14.95;9.90;;;11.10;99.90;;;;;;8262077;28;20029;-78
2022/10/06 21:29:11;;;;;;;14.85;10.13;;;11.00;99.90;;;;;;8263791;28;20026;-79
2022/10/06 21:33:12;;;;;;;13.57;8.90;;;11.00;99.90;;;;;;8263369;28;20018;-79
2022/10/06 21:37:12;;;;;;;12.20;7.93;;;11.20;99.90;;;;;;8262800;28;20037;-79
2022/10/06 21:41:28;;;;;;;9.88;7.95;;;11.30;99.90;;;;;;8263005;28;20030;-79